createdAt,value
2019-03-21T00:00:22.129Z,99260.02
2019-03-21T00:02:49.389Z,99259.51
2019-03-21T00:05:16.696Z,99256.17
2019-03-21T00:07:44.219Z,99252.20
2019-03-21T00:10:44.324Z,99252.38
2019-03-21T00:13:11.981Z,99247.03
2019-03-21T00:15:41.139Z,99250.03
2019-03-21T00:18:10.275Z,99254.71
2019-03-21T00:20:37.769Z,99253.20
2019-03-21T00:23:05.059Z,99251.20
2019-03-21T00:25:32.466Z,99251.55
2019-03-21T00:27:59.809Z,99254.87
2019-03-21T00:30:29.292Z,99256.55
2019-03-21T00:32:56.842Z,99258.25
2019-03-21T00:35:24.171Z,99248.07
2019-03-21T00:37:51.492Z,99251.07
2019-03-21T00:40:22.170Z,99246.73
2019-03-21T00:42:50.180Z,99255.57
2019-03-21T00:45:17.700Z,99259.58
2019-03-21T00:47:45.176Z,99255.57
2019-03-21T00:50:14.269Z,99262.58
2019-03-21T00:52:41.491Z,99258.73
2019-03-21T00:55:09.994Z,99256.76
2019-03-21T00:57:37.252Z,99259.59
2019-03-21T01:00:05.693Z,99261.42
2019-03-21T01:02:32.894Z,99254.08
2019-03-21T01:05:00.074Z,99248.07
2019-03-21T01:07:27.308Z,99257.08
2019-03-21T01:09:54.638Z,99248.90
2019-03-21T01:12:21.865Z,99247.89
2019-03-21T01:14:49.301Z,99253.39
2019-03-21T01:17:16.693Z,99250.05
2019-03-21T01:19:43.940Z,99250.72
2019-03-21T01:22:11.402Z,99252.22
2019-03-21T01:24:38.705Z,99250.08
2019-03-21T01:27:05.924Z,99253.05
2019-03-21T01:29:33.374Z,99248.91
2019-03-21T01:32:00.672Z,99244.08
2019-03-21T01:34:30.267Z,99250.41
2019-03-21T01:36:57.463Z,99252.73
2019-03-21T01:39:24.689Z,99256.91
2019-03-21T01:41:52.078Z,99249.23
2019-03-21T01:44:19.305Z,99249.39
2019-03-21T01:46:46.804Z,99251.38
2019-03-21T01:49:14.211Z,99251.55
2019-03-21T01:51:41.433Z,99246.37
2019-03-21T01:54:08.618Z,99252.70
2019-03-21T01:56:35.949Z,99251.20
2019-03-21T01:59:03.611Z,99252.36
2019-03-21T02:01:30.745Z,99248.88
2019-03-21T02:03:58.108Z,99248.70
2019-03-21T02:06:25.480Z,99248.20
2019-03-21T02:08:52.844Z,99246.53
2019-03-21T02:11:20.081Z,99246.20
2019-03-21T02:13:47.385Z,99256.52
2019-03-21T02:16:14.757Z,99256.19
2019-03-21T02:18:42.391Z,99255.84
2019-03-21T02:21:09.703Z,99254.84
2019-03-21T02:23:36.972Z,99256.00
2019-03-21T02:26:04.408Z,99249.67
2019-03-21T02:28:31.772Z,99251.16
2019-03-21T02:30:59.003Z,99245.83
2019-03-21T02:33:28.628Z,99235.17
2019-03-21T02:35:55.857Z,99240.16
2019-03-21T02:38:23.181Z,99237.66
2019-03-21T02:40:50.729Z,99233.83
2019-03-21T02:43:18.056Z,99232.31
2019-03-21T02:45:45.451Z,99235.14
2019-03-21T02:48:12.781Z,99229.14
2019-03-21T02:50:39.971Z,99232.30
2019-03-21T02:53:07.347Z,99224.47
2019-03-21T02:55:34.726Z,99222.64
2019-03-21T02:58:01.909Z,99216.47
2019-03-21T03:00:30.321Z,99215.48
2019-03-21T03:02:58.526Z,99216.33
2019-03-21T03:05:26.878Z,99220.48
2019-03-21T03:07:54.073Z,99219.31
2019-03-21T03:10:24.486Z,99218.14
2019-03-21T03:12:51.788Z,99214.31
2019-03-21T03:15:22.932Z,99213.13
2019-03-21T03:17:49.175Z,99216.80
2019-03-21T03:20:16.518Z,99214.79
2019-03-21T03:22:43.800Z,99213.77
2019-03-21T03:25:11.787Z,99213.59
2019-03-21T03:27:39.040Z,99209.11
2019-03-21T03:30:09.437Z,99213.76
2019-03-21T03:32:36.831Z,99209.59
2019-03-21T03:35:05.355Z,99203.09
2019-03-21T03:37:32.656Z,99201.61
2019-03-21T03:39:59.936Z,99201.91
2019-03-21T03:42:27.166Z,99201.77
2019-03-21T03:44:54.491Z,99206.76
2019-03-21T03:47:21.652Z,99202.75
2019-03-21T03:49:48.970Z,99204.57
2019-03-21T03:52:16.162Z,99199.25
2019-03-21T03:54:43.380Z,99196.74
2019-03-21T03:57:10.753Z,99185.93
2019-03-21T03:59:38.371Z,99179.59
2019-03-21T04:02:05.545Z,99184.08
2019-03-21T04:04:32.737Z,99175.58
2019-03-21T04:06:59.982Z,99170.25
2019-03-21T04:09:27.234Z,99172.08
2019-03-21T04:11:54.571Z,99171.41
2019-03-21T04:14:21.716Z,99171.72
2019-03-21T04:16:49.006Z,99177.88
2019-03-21T04:19:16.299Z,99176.71
2019-03-21T04:21:43.682Z,99180.37
2019-03-21T04:24:10.897Z,99187.19
2019-03-21T04:26:38.180Z,99192.19
2019-03-21T04:29:05.358Z,99196.34
2019-03-21T04:31:32.910Z,99198.33
2019-03-21T04:34:01.806Z,99196.16
2019-03-21T04:36:29.812Z,99199.16
2019-03-21T04:38:58.064Z,99201.83
2019-03-21T04:41:25.430Z,99205.48
2019-03-21T04:43:52.655Z,99205.17
2019-03-21T04:46:20.038Z,99211.16
2019-03-21T04:48:47.430Z,99207.32
2019-03-21T04:51:14.833Z,99207.48
2019-03-21T04:53:42.124Z,99210.64
2019-03-21T04:56:09.458Z,99209.46
2019-03-21T04:58:36.546Z,99209.62
2019-03-21T05:01:04.081Z,99215.94
2019-03-21T05:03:31.320Z,99212.78
2019-03-21T05:05:58.514Z,99215.10
2019-03-21T05:08:26.014Z,99214.95
2019-03-21T05:10:53.663Z,99220.95
2019-03-21T05:13:20.885Z,99219.28
2019-03-21T05:15:48.324Z,99218.94
2019-03-21T05:18:28.612Z,99222.93
2019-03-21T05:20:56.310Z,99223.61
2019-03-21T05:23:23.529Z,99220.61
2019-03-21T05:25:50.812Z,99219.46
2019-03-21T05:28:18.150Z,99229.95
2019-03-21T05:30:49.267Z,99232.61
2019-03-21T05:33:16.828Z,99232.29
2019-03-21T05:35:44.269Z,99231.48
2019-03-21T05:38:11.931Z,99235.00
2019-03-21T05:40:39.216Z,99236.84
2019-03-21T05:43:09.881Z,99241.36
2019-03-21T05:45:37.256Z,99242.88
2019-03-21T05:48:04.832Z,99238.56
2019-03-21T05:50:32.055Z,99238.05
2019-03-21T05:52:59.275Z,99247.08
2019-03-21T05:55:26.910Z,99247.77
2019-03-21T05:57:54.476Z,99254.47
2019-03-21T06:00:28.223Z,99254.97
2019-03-21T06:02:55.539Z,99250.34
2019-03-21T06:05:22.905Z,99254.02
2019-03-21T06:08:11.451Z,99257.05
2019-03-21T06:10:38.915Z,99257.40
2019-03-21T06:13:06.157Z,99263.89
2019-03-21T06:15:34.477Z,99257.23
2019-03-21T06:18:49.722Z,99258.25
2019-03-21T06:21:24.556Z,99261.24
2019-03-21T06:24:29.618Z,99260.89
2019-03-21T06:27:33.489Z,99259.05
2019-03-21T06:30:00.968Z,99259.00
2019-03-21T06:32:28.730Z,99247.96
2019-03-21T06:34:56.394Z,99248.89
2019-03-21T06:37:24.075Z,99255.34
2019-03-21T06:39:51.288Z,99254.13
2019-03-21T06:42:18.763Z,99250.69
2019-03-21T06:44:46.160Z,99260.66
2019-03-21T06:47:13.431Z,99258.88
2019-03-21T06:49:40.779Z,99261.47
2019-03-21T06:52:08.402Z,99259.99
2019-03-21T06:54:35.770Z,99258.03
2019-03-21T06:57:03.183Z,99255.59
2019-03-21T06:59:31.136Z,99257.64
2019-03-21T07:01:58.319Z,99255.00
2019-03-21T07:04:25.448Z,99254.54
2019-03-21T07:06:53.118Z,99251.74
2019-03-21T07:09:29.463Z,99248.11
2019-03-21T07:11:56.844Z,99251.46
2019-03-21T07:14:24.105Z,99247.17
2019-03-21T07:17:00.101Z,99246.77
2019-03-21T07:19:20.397Z,99240.15
2019-03-21T07:21:47.688Z,99242.48
2019-03-21T07:24:14.941Z,99243.77
2019-03-21T07:26:42.035Z,99243.28
2019-03-21T07:29:09.323Z,99246.15
2019-03-21T07:31:36.684Z,99239.13
2019-03-21T07:34:04.300Z,99245.30
2019-03-21T07:36:31.645Z,99241.98
2019-03-21T07:38:58.934Z,99233.91
2019-03-21T07:41:26.176Z,99240.51
2019-03-21T07:43:53.531Z,99236.49
2019-03-21T07:46:20.988Z,99228.94
2019-03-21T07:48:48.146Z,99237.81
2019-03-21T07:51:15.511Z,99233.75
2019-03-21T07:53:42.833Z,99234.45
2019-03-21T07:56:10.121Z,99232.23
2019-03-21T07:58:37.488Z,99225.63
2019-03-21T08:01:04.828Z,99225.66
2019-03-21T08:03:32.011Z,99226.97
2019-03-21T08:05:59.188Z,99227.06
2019-03-21T08:08:26.523Z,99234.52
2019-03-21T08:10:53.706Z,99230.28
2019-03-21T08:13:21.027Z,99219.19
2019-03-21T08:15:48.334Z,99214.95
2019-03-21T08:18:16.784Z,99215.08
2019-03-21T08:20:55.649Z,99210.77
2019-03-21T08:23:13.117Z,99206.19
2019-03-21T08:25:40.531Z,99206.55
2019-03-21T08:28:08.013Z,99197.20
2019-03-21T08:30:36.375Z,99194.88
2019-03-21T08:33:04.489Z,99193.09
2019-03-21T08:35:31.786Z,99184.34
2019-03-21T08:37:58.971Z,99189.45
2019-03-21T08:40:26.283Z,99193.65
2019-03-21T08:42:53.528Z,99188.17
2019-03-21T08:45:20.897Z,99192.23
2019-03-21T08:47:48.132Z,99191.00
2019-03-21T08:50:15.407Z,99185.20
2019-03-21T08:52:42.762Z,99177.00
2019-03-21T08:55:09.965Z,99179.47
2019-03-21T08:57:37.160Z,99182.14
2019-03-21T09:00:05.140Z,99178.86
2019-03-21T09:02:32.503Z,99180.39
2019-03-21T09:04:59.972Z,99177.17
2019-03-21T09:07:27.134Z,99176.19
2019-03-21T09:09:54.349Z,99178.30
2019-03-21T09:12:21.712Z,99184.70
2019-03-21T09:14:48.895Z,99186.15
2019-03-21T09:17:16.082Z,99185.17
2019-03-21T09:19:43.291Z,99179.42
2019-03-21T09:22:11.669Z,99178.40
2019-03-21T09:24:38.865Z,99174.31
2019-03-21T09:27:06.070Z,99183.82
2019-03-21T09:29:33.405Z,99179.63
2019-03-21T09:32:00.700Z,99180.88
2019-03-21T09:34:27.910Z,99177.42
2019-03-21T09:36:56.165Z,99174.27
2019-03-21T09:39:23.521Z,99175.39
2019-03-21T09:41:50.808Z,99176.77
2019-03-21T09:44:25.502Z,99176.28
2019-03-21T09:46:52.685Z,99179.00
2019-03-21T09:49:19.889Z,99161.61
2019-03-21T09:51:47.083Z,99161.61
2019-03-21T09:54:14.304Z,99172.86
2019-03-21T09:56:41.547Z,99173.36
2019-03-21T09:59:08.849Z,99167.30
2019-03-21T10:01:36.148Z,99162.70
2019-03-21T10:04:03.566Z,99163.61
2019-03-21T10:06:30.832Z,99164.27
2019-03-21T10:08:58.249Z,99163.36
2019-03-21T10:11:25.353Z,99160.91
2019-03-21T10:13:52.538Z,99162.67
2019-03-21T10:16:21.030Z,99159.73
2019-03-21T10:18:48.219Z,99157.06
2019-03-21T10:21:15.365Z,99164.40
2019-03-21T10:23:42.745Z,99159.98
2019-03-21T10:26:09.882Z,99152.63
2019-03-21T10:28:37.191Z,99155.83
2019-03-21T10:31:04.486Z,99151.95
2019-03-21T10:33:31.581Z,99157.91
2019-03-21T10:35:58.985Z,99147.27
2019-03-21T10:38:26.223Z,99144.64
2019-03-21T10:40:53.505Z,99141.09
2019-03-21T10:43:20.674Z,99139.09
2019-03-21T10:45:48.028Z,99133.61
2019-03-21T10:48:15.221Z,99102.49
2019-03-21T10:50:42.504Z,99124.05
2019-03-21T10:53:09.865Z,99115.39
2019-03-21T10:55:37.620Z,99117.84
2019-03-21T10:58:05.635Z,99116.50
2019-03-21T11:00:32.945Z,99115.44
2019-03-21T11:03:00.368Z,99113.30
2019-03-21T11:05:27.652Z,99107.70
2019-03-21T11:07:54.928Z,99107.48
2019-03-21T11:10:22.110Z,99100.14
2019-03-21T11:12:49.432Z,99099.48
2019-03-21T11:15:16.757Z,99097.80
2019-03-21T11:17:43.942Z,99094.28
2019-03-21T11:20:19.349Z,99088.41
2019-03-21T11:22:46.414Z,99080.29
2019-03-21T11:25:13.606Z,99082.61
2019-03-21T11:27:40.767Z,99074.55
2019-03-21T11:30:15.922Z,99083.93
2019-03-21T11:32:37.561Z,99074.17
2019-03-21T11:35:04.875Z,99066.36
2019-03-21T11:37:32.269Z,99057.24
2019-03-21T11:39:59.686Z,99058.92
2019-03-21T11:42:26.885Z,99059.71
2019-03-21T11:44:54.012Z,99052.11
2019-03-21T11:47:21.332Z,99045.45
2019-03-21T11:49:48.558Z,99046.98
2019-03-21T11:52:18.416Z,99046.13
2019-03-21T11:54:45.078Z,99035.79
2019-03-21T11:57:12.297Z,99027.66
2019-03-21T11:59:51.146Z,99025.13
2019-03-21T12:02:08.625Z,99023.61
2019-03-21T12:04:35.914Z,99023.80
2019-03-21T12:07:03.212Z,99024.81
2019-03-21T12:09:30.448Z,99017.98
2019-03-21T12:11:57.727Z,99004.20
2019-03-21T12:14:24.925Z,99003.53
2019-03-21T12:16:52.099Z,99005.67
2019-03-21T12:19:19.535Z,98997.67
2019-03-21T12:21:46.789Z,98997.67
2019-03-21T12:24:16.896Z,98994.25
2019-03-21T12:26:44.069Z,98996.98
2019-03-21T12:29:11.403Z,98994.81
2019-03-21T12:31:38.831Z,98990.89
2019-03-21T12:34:05.983Z,98992.97
2019-03-21T12:36:33.308Z,98985.13
2019-03-21T12:39:00.682Z,98981.53
2019-03-21T12:41:27.887Z,98974.97
2019-03-21T12:43:55.141Z,98970.59
2019-03-21T12:46:22.636Z,98968.56
2019-03-21T12:48:49.754Z,98963.87
2019-03-21T12:51:16.992Z,98963.56
2019-03-21T12:53:44.350Z,98953.01
2019-03-21T12:56:11.591Z,98945.55
2019-03-21T12:58:38.889Z,98942.00
2019-03-21T13:01:06.377Z,98935.09
2019-03-21T13:03:33.476Z,98930.97
2019-03-21T13:06:00.824Z,98937.00
2019-03-21T13:08:33.801Z,98935.38
2019-03-21T13:10:57.077Z,98933.53
2019-03-21T13:13:24.222Z,98921.85
2019-03-21T13:15:51.321Z,98922.09
2019-03-21T13:18:18.609Z,98921.09
2019-03-21T13:20:45.885Z,98918.80
2019-03-21T13:23:13.098Z,98915.84
2019-03-21T13:25:40.529Z,98912.71
2019-03-21T13:28:07.740Z,98912.13
2019-03-21T13:30:35.403Z,98906.30
2019-03-21T13:33:03.171Z,98903.22
2019-03-21T13:35:32.923Z,98902.30
2019-03-21T13:37:59.329Z,98900.62
2019-03-21T13:40:26.780Z,98891.73
2019-03-21T13:42:57.121Z,98886.73
2019-03-21T13:45:24.408Z,98881.06
2019-03-21T13:47:51.764Z,98889.23
2019-03-21T13:50:19.235Z,98882.48
2019-03-21T13:52:46.303Z,98889.14
2019-03-21T13:55:13.631Z,98875.73
2019-03-21T13:57:40.842Z,98871.83
2019-03-21T14:00:09.842Z,98870.04
2019-03-21T14:02:37.086Z,98870.86
2019-03-21T14:05:05.180Z,98866.91
2019-03-21T14:07:32.349Z,98860.43
2019-03-21T14:09:59.654Z,98861.52
2019-03-21T14:12:26.886Z,98864.03
2019-03-21T14:14:53.981Z,98851.92
2019-03-21T14:17:22.112Z,98847.55
2019-03-21T14:19:49.907Z,98843.77
2019-03-21T14:22:17.164Z,98841.89
2019-03-21T14:24:44.464Z,98837.28
2019-03-21T14:27:11.803Z,98836.08
2019-03-21T14:29:39.004Z,98836.72
2019-03-21T14:32:06.170Z,98827.73
2019-03-21T14:34:33.408Z,98829.09
2019-03-21T14:37:00.792Z,98826.61
2019-03-21T14:39:28.038Z,98817.61
2019-03-21T14:41:55.210Z,98813.91
2019-03-21T14:44:22.722Z,98808.62
2019-03-21T14:46:54.373Z,98797.98
2019-03-21T14:49:21.817Z,98809.52
2019-03-21T14:51:49.070Z,98809.27
2019-03-21T14:54:16.215Z,98795.94
2019-03-21T14:56:43.683Z,98802.80
2019-03-21T14:59:11.132Z,98802.32
2019-03-21T15:01:40.666Z,98798.46
2019-03-21T15:04:07.606Z,98799.24
2019-03-21T15:06:35.106Z,98787.08
2019-03-21T15:09:06.980Z,98786.45
2019-03-21T15:11:37.140Z,98778.94
2019-03-21T15:14:04.443Z,98772.86
2019-03-21T15:16:31.703Z,98772.52
2019-03-21T15:19:00.599Z,98768.12
2019-03-21T15:21:28.050Z,98773.21
2019-03-21T15:23:59.631Z,98773.48
2019-03-21T15:26:24.651Z,98773.21
2019-03-21T15:28:51.843Z,98769.73
2019-03-21T15:31:19.654Z,98769.37
2019-03-21T15:33:46.891Z,98763.80
2019-03-21T15:36:14.106Z,98766.49
2019-03-21T15:38:41.378Z,98771.01
2019-03-21T15:41:08.596Z,98768.50
2019-03-21T15:43:35.695Z,98768.46
2019-03-21T15:46:03.154Z,98767.94
2019-03-21T15:48:30.344Z,98769.43
2019-03-21T15:51:04.306Z,98767.11
2019-03-21T15:53:26.571Z,98770.83
2019-03-21T15:55:53.887Z,98770.69
2019-03-21T15:58:21.081Z,98762.47
2019-03-21T16:00:48.290Z,98772.08
2019-03-21T16:03:15.706Z,98770.30
2019-03-21T16:05:43.011Z,98770.27
2019-03-21T16:08:10.297Z,98766.53
2019-03-21T16:10:37.622Z,98767.61
2019-03-21T16:13:04.815Z,98771.01
2019-03-21T16:15:32.155Z,98770.67
2019-03-21T16:17:59.433Z,98770.05
2019-03-21T16:20:26.791Z,98766.17
2019-03-21T16:22:54.109Z,98770.70
2019-03-21T16:25:21.441Z,98772.75
2019-03-21T16:27:48.723Z,98769.62
2019-03-21T16:30:16.008Z,98768.88
2019-03-21T16:32:43.197Z,98767.84
2019-03-21T16:35:10.614Z,98774.22
2019-03-21T16:37:37.780Z,98769.91
2019-03-21T16:40:05.749Z,98777.57
2019-03-21T16:42:32.974Z,98765.03
2019-03-21T16:45:00.410Z,98771.33
2019-03-21T16:47:27.722Z,98762.31
2019-03-21T16:49:55.015Z,98769.18
2019-03-21T16:52:22.141Z,98765.63
2019-03-21T16:54:51.110Z,98767.01
2019-03-21T16:57:18.366Z,98776.83
2019-03-21T16:59:45.544Z,98775.20
2019-03-21T17:02:12.716Z,98779.55
2019-03-21T17:04:40.173Z,98787.14
2019-03-21T17:07:07.215Z,98788.23
2019-03-21T17:09:34.487Z,98789.83
2019-03-21T17:12:01.952Z,98790.08
2019-03-21T17:14:29.123Z,98794.92
2019-03-21T17:16:56.287Z,98798.16
2019-03-21T17:19:23.664Z,98801.06
2019-03-21T17:21:50.849Z,98805.63
2019-03-21T17:24:28.789Z,98801.70
2019-03-21T17:26:47.128Z,98806.43
2019-03-21T17:29:14.337Z,98805.78
2019-03-21T17:31:41.577Z,98811.09
2019-03-21T17:34:08.896Z,98808.81
2019-03-21T17:36:36.599Z,98813.61
2019-03-21T17:39:06.589Z,98814.61
2019-03-21T17:41:34.361Z,98813.36
2019-03-21T17:44:01.852Z,98817.63
2019-03-21T17:46:29.028Z,98824.59
2019-03-21T17:48:56.337Z,98817.94
2019-03-21T17:51:23.614Z,98823.85
2019-03-21T17:53:50.867Z,98824.29
2019-03-21T17:56:18.067Z,98819.78
2019-03-21T17:58:45.232Z,98817.81
2019-03-21T18:01:12.595Z,98824.50
2019-03-21T18:03:39.895Z,98825.17
2019-03-21T18:06:07.201Z,98825.88
2019-03-21T18:08:35.124Z,98834.16
2019-03-21T18:11:02.263Z,98832.92
2019-03-21T18:13:29.583Z,98836.04
2019-03-21T18:15:56.976Z,98840.77
2019-03-21T18:18:24.324Z,98843.59
2019-03-21T18:20:51.712Z,98846.65
2019-03-21T18:23:18.935Z,98852.67
2019-03-21T18:25:46.227Z,98855.85
2019-03-21T18:28:13.609Z,98852.46
2019-03-21T18:30:40.793Z,98858.03
2019-03-21T18:33:08.125Z,98858.95
2019-03-21T18:35:35.427Z,98859.06
2019-03-21T18:38:03.208Z,98860.27
2019-03-21T18:40:30.528Z,98861.19
2019-03-21T18:42:58.257Z,98856.17
2019-03-21T18:45:25.498Z,98857.13
2019-03-21T18:47:52.801Z,98863.69
2019-03-21T18:50:20.200Z,98860.60
2019-03-21T18:52:47.823Z,98853.71
2019-03-21T18:55:15.195Z,98863.86
2019-03-21T18:57:42.497Z,98861.32
2019-03-21T19:00:10.794Z,98865.56
2019-03-21T19:02:38.024Z,98864.09
2019-03-21T19:05:06.243Z,98860.71
2019-03-21T19:07:33.788Z,98859.47
2019-03-21T19:10:01.693Z,98868.70
2019-03-21T19:12:29.066Z,98865.31
2019-03-21T19:14:56.329Z,98869.72
2019-03-21T19:17:23.673Z,98865.47
2019-03-21T19:19:50.926Z,98869.97
2019-03-21T19:22:18.212Z,98876.02
2019-03-21T19:24:45.629Z,98877.47
2019-03-21T19:27:12.884Z,98873.57
2019-03-21T19:29:40.270Z,98872.02
2019-03-21T19:32:07.612Z,98874.33
2019-03-21T19:34:34.816Z,98875.77
2019-03-21T19:37:02.108Z,98875.86
2019-03-21T19:39:29.421Z,98877.31
2019-03-21T19:41:56.608Z,98878.78
2019-03-21T19:44:23.719Z,98876.69
2019-03-21T19:46:50.995Z,98876.77
2019-03-21T19:49:18.202Z,98876.03
2019-03-21T19:51:45.415Z,98881.52
2019-03-21T19:54:12.654Z,98879.87
2019-03-21T19:56:39.739Z,98878.60
2019-03-21T19:59:06.898Z,98878.19
2019-03-21T20:01:34.095Z,98877.73
2019-03-21T20:04:01.275Z,98871.34
2019-03-21T20:06:28.531Z,98874.12
2019-03-21T20:08:56.826Z,98880.98
2019-03-21T20:11:24.596Z,98877.81
2019-03-21T20:13:51.756Z,98885.23
2019-03-21T20:16:18.940Z,98876.67
2019-03-21T20:18:47.919Z,98887.57
2019-03-21T20:21:15.186Z,98887.55
2019-03-21T20:23:42.343Z,98887.30
2019-03-21T20:26:09.694Z,98892.23
2019-03-21T20:28:36.937Z,98893.38
2019-03-21T20:31:04.232Z,98891.47
2019-03-21T20:33:31.441Z,98897.73
2019-03-21T20:35:58.772Z,98902.39
2019-03-21T20:38:26.128Z,98899.95
2019-03-21T20:40:53.422Z,98907.48
2019-03-21T20:43:20.680Z,98909.91
2019-03-21T20:45:47.890Z,98904.28
2019-03-21T20:48:15.321Z,98908.14
2019-03-21T20:50:42.772Z,98906.09
2019-03-21T20:53:09.985Z,98913.70
2019-03-21T20:55:37.496Z,98911.28
2019-03-21T20:58:04.710Z,98913.48
2019-03-21T21:00:32.062Z,98911.13
2019-03-21T21:02:59.355Z,98910.63
2019-03-21T21:05:26.742Z,98912.64
2019-03-21T21:07:54.174Z,98905.41
2019-03-21T21:10:21.495Z,98906.36
2019-03-21T21:12:49.690Z,98910.00
2019-03-21T21:15:17.654Z,98916.54
2019-03-21T21:17:45.007Z,98912.30
2019-03-21T21:20:12.986Z,98910.27
2019-03-21T21:22:40.453Z,98915.78
2019-03-21T21:25:08.221Z,98914.41
2019-03-21T21:27:35.825Z,98915.56
2019-03-21T21:30:04.642Z,98919.92
2019-03-21T21:32:31.894Z,98913.85
2019-03-21T21:34:59.240Z,98917.17
2019-03-21T21:37:26.414Z,98914.80
2019-03-21T21:39:53.673Z,98912.73
2019-03-21T21:42:20.835Z,98912.63
2019-03-21T21:44:48.442Z,98911.39
2019-03-21T21:47:15.619Z,98912.25
2019-03-21T21:49:42.792Z,98916.70
2019-03-21T21:52:10.170Z,98914.94
2019-03-21T21:54:37.398Z,98911.53
2019-03-21T21:57:05.162Z,98923.12
2019-03-21T21:59:33.793Z,98925.32
2019-03-21T22:02:01.635Z,98931.84
2019-03-21T22:04:29.004Z,98929.55
2019-03-21T22:06:56.538Z,98927.27
2019-03-21T22:09:23.883Z,98928.41
2019-03-21T22:11:51.808Z,98932.95
2019-03-21T22:14:21.060Z,98926.98
2019-03-21T22:16:48.601Z,98933.28
2019-03-21T22:19:15.822Z,98931.52
2019-03-21T22:21:43.082Z,98935.44
2019-03-21T22:24:10.358Z,98933.47
2019-03-21T22:26:37.570Z,98934.39
2019-03-21T22:29:04.997Z,98932.11
2019-03-21T22:31:32.227Z,98930.75
2019-03-21T22:33:59.423Z,98933.36
2019-03-21T22:36:26.742Z,98932.82
2019-03-21T22:38:54.989Z,98933.42
2019-03-21T22:41:22.206Z,98930.31
2019-03-21T22:43:49.380Z,98936.92
2019-03-21T22:46:16.568Z,98936.49
2019-03-21T22:48:43.867Z,98932.34
2019-03-21T22:51:11.057Z,98933.61
2019-03-21T22:53:38.112Z,98929.98
2019-03-21T22:56:05.292Z,98928.21
2019-03-21T22:58:32.767Z,98927.47
2019-03-21T23:01:00.541Z,98920.20
2019-03-21T23:03:27.574Z,98916.78
2019-03-21T23:05:54.752Z,98917.72
2019-03-21T23:08:22.023Z,98911.41
2019-03-21T23:10:49.091Z,98917.30
2019-03-21T23:13:16.311Z,98919.55
2019-03-21T23:15:43.513Z,98919.23
2019-03-21T23:18:10.690Z,98913.11
2019-03-21T23:20:37.969Z,98919.39
2019-03-21T23:23:05.187Z,98923.50
2019-03-21T23:25:32.252Z,98919.56
2019-03-21T23:27:59.369Z,98919.16
2019-03-21T23:30:26.601Z,98911.81
2019-03-21T23:32:53.889Z,98915.72
2019-03-21T23:35:21.117Z,98915.80
2019-03-21T23:37:48.296Z,98914.34
2019-03-21T23:40:15.721Z,98921.13
2019-03-21T23:42:42.910Z,98920.61
2019-03-21T23:45:10.432Z,98922.67
2019-03-21T23:47:37.618Z,98919.55
2019-03-21T23:50:06.336Z,98913.77
2019-03-21T23:52:33.404Z,98910.14
2019-03-21T23:55:00.597Z,98908.16
2019-03-21T23:57:27.756Z,98906.90
2019-03-21T23:59:55.053Z,98905.23
